createdAt,value
2022-10-05T00:00:03.271Z,11
2022-10-05T00:01:07.793Z,10.8
2022-10-05T00:02:17.183Z,11
2022-10-05T00:03:21.910Z,9.7
2022-10-05T00:04:26.060Z,10.8
2022-10-05T00:05:30.473Z,9.4
2022-10-05T00:06:34.792Z,10.5
2022-10-05T00:07:39.152Z,10.7
2022-10-05T00:08:43.553Z,9.6
2022-10-05T00:09:47.867Z,9.6
2022-10-05T00:10:55.129Z,9.6
2022-10-05T00:11:59.628Z,10.2
2022-10-05T00:13:12.059Z,10.3
2022-10-05T00:14:16.451Z,10.2
2022-10-05T00:15:25.371Z,9.4
2022-10-05T00:16:29.747Z,10.6
2022-10-05T00:17:34.497Z,10.2
2022-10-05T00:18:38.843Z,9.9
2022-10-05T00:19:43.542Z,9.8
2022-10-05T00:20:47.923Z,10.1
2022-10-05T00:21:52.231Z,9.9
2022-10-05T00:22:59.551Z,10.9
2022-10-05T00:24:03.823Z,10.1
2022-10-05T00:25:08.580Z,10
2022-10-05T00:27:20.426Z,10.1
2022-10-05T00:28:24.750Z,10.3
2022-10-05T00:29:29.044Z,9.2
2022-10-05T00:30:33.215Z,9.1
2022-10-05T00:31:37.577Z,8.9
2022-10-05T00:32:41.899Z,9.4
2022-10-05T00:33:46.255Z,9.1
2022-10-05T00:34:50.796Z,9.1
2022-10-05T00:35:55.189Z,9.2
2022-10-05T00:37:01.024Z,9.6
2022-10-05T00:38:05.403Z,8.5
2022-10-05T00:39:09.739Z,8.4
2022-10-05T00:40:13.795Z,8.4
2022-10-05T00:41:23.290Z,8.7
2022-10-05T00:42:30.615Z,8.8
2022-10-05T00:43:40.067Z,9.1
2022-10-05T00:44:44.595Z,9.6
2022-10-05T00:45:54.851Z,8.8
2022-10-05T00:47:07.147Z,9.2
2022-10-05T00:48:21.572Z,10.2
2022-10-05T00:49:31.042Z,10.5
2022-10-05T00:50:43.306Z,9.7
2022-10-05T00:51:57.882Z,10.4
2022-10-05T00:53:07.723Z,10
2022-10-05T00:54:15.930Z,10
2022-10-05T00:55:26.307Z,9.8
2022-10-05T00:56:35.760Z,10.1
2022-10-05T00:57:50.176Z,10.2
2022-10-05T00:59:00.410Z,9.3
2022-10-05T01:00:10.185Z,9.3
2022-10-05T01:01:14.462Z,8.8
2022-10-05T01:02:26.355Z,10.3
2022-10-05T01:03:31.322Z,9.9
2022-10-05T01:04:40.737Z,9.4
2022-10-05T01:05:55.159Z,8.5
2022-10-05T01:07:04.545Z,8.9
2022-10-05T01:08:14.467Z,8.4
2022-10-05T01:10:42.686Z,9.5
2022-10-05T01:11:54.831Z,7.8
2022-10-05T01:12:59.151Z,8.5
2022-10-05T01:14:13.463Z,8.7
2022-10-05T01:15:27.942Z,9.3
2022-10-05T01:16:37.492Z,9.6
2022-10-05T01:17:46.915Z,9.8
2022-10-05T01:18:59.348Z,10.4
2022-10-05T01:20:11.899Z,9.7
2022-10-05T01:21:16.250Z,10.6
2022-10-05T01:22:20.547Z,10
2022-10-05T01:23:29.986Z,10.5
2022-10-05T01:24:41.251Z,10
2022-10-05T01:25:55.635Z,9.9
2022-10-05T01:27:10.011Z,10.2
2022-10-05T01:28:19.401Z,9.3
2022-10-05T01:29:26.551Z,9.1
2022-10-05T01:30:31.110Z,9.4
2022-10-05T01:31:38.159Z,8.6
2022-10-05T01:32:45.543Z,8.6
2022-10-05T01:33:55.070Z,8.7
2022-10-05T01:35:04.441Z,8.5
2022-10-05T01:36:11.663Z,8.6
2022-10-05T01:37:21.391Z,8.6
2022-10-05T01:38:30.844Z,8.5
2022-10-05T01:39:45.128Z,8.4
2022-10-05T01:40:54.393Z,7.9
2022-10-05T01:41:58.567Z,7.9
2022-10-05T01:43:07.819Z,8.3
2022-10-05T01:44:12.091Z,8.9
2022-10-05T01:45:16.423Z,7.3
2022-10-05T01:46:29.235Z,7.4
2022-10-05T01:47:38.479Z,7.5
2022-10-05T01:48:48.463Z,7.6
2022-10-05T01:50:03.035Z,7.9
2022-10-05T01:51:15.068Z,8.9
2022-10-05T01:52:19.224Z,7.8
2022-10-05T01:53:23.727Z,7.7
2022-10-05T01:54:38.192Z,8
2022-10-05T01:55:47.688Z,7.5
2022-10-05T01:56:59.653Z,7.9
2022-10-05T01:58:14.153Z,8.6
2022-10-05T01:59:23.500Z,7.6
2022-10-05T02:00:37.963Z,7.8
2022-10-05T02:01:44.693Z,6.9
2022-10-05T02:02:52.192Z,6.4
2022-10-05T02:04:01.484Z,7.1
2022-10-05T02:05:15.940Z,6.8
2022-10-05T02:06:20.300Z,6.7
2022-10-05T02:07:24.608Z,6.3
2022-10-05T02:08:37.124Z,5.8
2022-10-05T02:09:41.525Z,6
2022-10-05T02:10:45.753Z,7
2022-10-05T02:11:50.213Z,7
2022-10-05T02:13:02.615Z,6.3
2022-10-05T02:14:11.979Z,6
2022-10-05T02:15:16.319Z,6.4
2022-10-05T02:16:20.639Z,7.1
2022-10-05T02:17:33.976Z,6.6
2022-10-05T02:18:46.284Z,6.8
2022-10-05T02:19:58.219Z,6.7
2022-10-05T02:21:05.967Z,7.1
2022-10-05T02:22:10.123Z,7.2
2022-10-05T02:23:19.400Z,7.1
2022-10-05T02:24:23.784Z,7
2022-10-05T02:25:31.341Z,7
2022-10-05T02:26:35.743Z,7.2
2022-10-05T02:27:40.028Z,7.7
2022-10-05T02:28:44.388Z,7.8
2022-10-05T02:29:53.448Z,7.8
2022-10-05T02:30:57.716Z,6.5
2022-10-05T02:32:10.305Z,6.5
2022-10-05T02:33:14.681Z,7
2022-10-05T02:34:23.944Z,6
2022-10-05T02:35:28.516Z,5.7
2022-10-05T02:36:32.861Z,5.4
2022-10-05T02:37:37.272Z,5.5
2022-10-05T02:38:48.999Z,5.2
2022-10-05T02:39:58.095Z,5.2
2022-10-05T02:41:12.635Z,5.5
2022-10-05T02:42:31.776Z,5.5
2022-10-05T02:43:43.799Z,5.6
2022-10-05T02:44:53.895Z,4.9
2022-10-05T02:46:06.143Z,5
2022-10-05T02:47:20.747Z,5.2
2022-10-05T02:48:35.204Z,5
2022-10-05T02:49:49.835Z,5.1
2022-10-05T02:50:54.183Z,5.4
2022-10-05T02:52:08.581Z,5.4
2022-10-05T02:54:26.879Z,4.9
2022-10-05T02:55:39.347Z,4.9
2022-10-05T02:56:49.129Z,4.8
2022-10-05T02:58:00.632Z,4.5
2022-10-05T02:59:15.057Z,5.5
2022-10-05T03:00:24.272Z,4.6
2022-10-05T03:01:28.663Z,4.8
2022-10-05T03:02:38.135Z,5.4
2022-10-05T03:03:45.290Z,5
2022-10-05T03:04:54.796Z,4.9
2022-10-05T03:06:09.247Z,4.5
2022-10-05T03:07:13.567Z,5.3
2022-10-05T03:08:24.011Z,5.3
2022-10-05T03:09:33.367Z,4.7
2022-10-05T03:10:38.208Z,4.8
2022-10-05T03:11:47.513Z,4.8
2022-10-05T03:12:51.999Z,5.1
2022-10-05T03:14:01.479Z,4.2
2022-10-05T03:15:13.547Z,4.6
2022-10-05T03:16:20.784Z,4.2
2022-10-05T03:17:36.544Z,4.4
2022-10-05T03:18:40.910Z,4.4
2022-10-05T03:19:53.149Z,4.4
2022-10-05T03:21:03.954Z,4.5
2022-10-05T03:22:20.668Z,4.5
2022-10-05T03:23:33.683Z,4.3
2022-10-05T03:24:52.235Z,4.8
2022-10-05T03:26:05.123Z,4.3
2022-10-05T03:27:19.899Z,4.6
2022-10-05T03:28:29.403Z,4.8
2022-10-05T03:29:36.488Z,4.7
2022-10-05T03:30:45.913Z,5
2022-10-05T03:32:00.884Z,4.7
2022-10-05T03:33:15.355Z,5.3
2022-10-05T03:34:27.886Z,5
2022-10-05T03:35:42.441Z,4.8
2022-10-05T03:36:56.768Z,4.6
2022-10-05T03:38:01.070Z,5
2022-10-05T03:39:15.514Z,5
2022-10-05T03:40:25.687Z,5.3
2022-10-05T03:42:43.859Z,4.5
2022-10-05T03:43:56.374Z,5.1
2022-10-05T03:45:08.278Z,5.1
2022-10-05T03:46:17.661Z,5.2
2022-10-05T03:47:28.559Z,4.6
2022-10-05T03:48:40.831Z,4.4
2022-10-05T03:49:48.118Z,4.7
2022-10-05T03:51:02.446Z,4.5
2022-10-05T03:52:06.623Z,4.8
2022-10-05T03:53:11.007Z,4.4
2022-10-05T03:54:20.343Z,4.4
2022-10-05T03:55:32.639Z,4.3
2022-10-05T03:56:39.664Z,4.8
2022-10-05T03:57:49.355Z,4.5
2022-10-05T03:58:53.703Z,4.2
2022-10-05T03:59:57.939Z,4.5
2022-10-05T04:01:10.652Z,4.6
2022-10-05T04:02:15.143Z,4.5
2022-10-05T04:03:27.340Z,4.8
2022-10-05T04:04:37.889Z,4.5
2022-10-05T04:05:50.201Z,5.2
2022-10-05T04:06:54.572Z,4.6
2022-10-05T04:07:58.715Z,5.2
2022-10-05T04:09:03.039Z,5.2
2022-10-05T04:10:15.327Z,5.1
2022-10-05T04:11:19.519Z,4.9
2022-10-05T04:12:24.174Z,5.2
2022-10-05T04:13:34.503Z,5
2022-10-05T04:14:38.823Z,5.2
2022-10-05T04:15:50.614Z,5.2
2022-10-05T04:17:00.510Z,5.1
2022-10-05T04:18:09.931Z,4.8
2022-10-05T04:19:22.102Z,5.4
2022-10-05T04:20:26.390Z,4.7
2022-10-05T04:21:40.739Z,4.7
2022-10-05T04:22:50.175Z,4.3
2022-10-05T04:23:54.519Z,4.7
2022-10-05T04:25:03.827Z,4.8
2022-10-05T04:26:15.895Z,5.1
2022-10-05T04:27:20.235Z,4.6
2022-10-05T04:28:28.276Z,4.8
2022-10-05T04:29:34.239Z,4.6
2022-10-05T04:30:39.490Z,4.4
2022-10-05T04:31:43.765Z,5.1
2022-10-05T04:32:55.948Z,4.4
2022-10-05T04:34:00.258Z,4.8
2022-10-05T04:35:04.962Z,4.6
2022-10-05T04:36:14.229Z,5.1
2022-10-05T04:37:26.319Z,4.4
2022-10-05T04:38:38.496Z,4.7
2022-10-05T04:39:52.795Z,5
2022-10-05T04:41:02.130Z,5
2022-10-05T04:42:14.432Z,5.7
2022-10-05T04:43:23.815Z,5.5
2022-10-05T04:44:38.238Z,5
2022-10-05T04:45:50.166Z,4.5
2022-10-05T04:46:59.763Z,4.9
2022-10-05T04:48:10.050Z,4.7
2022-10-05T04:49:19.438Z,5.6
2022-10-05T04:50:28.834Z,4.7
2022-10-05T04:51:41.038Z,4.9
2022-10-05T04:52:55.511Z,4.9
2022-10-05T04:54:04.963Z,5.7
2022-10-05T04:55:14.399Z,4.7
2022-10-05T04:56:23.598Z,5.3
2022-10-05T04:58:46.422Z,5.7
2022-10-05T05:00:01.600Z,5.2
2022-10-05T05:01:13.905Z,4.9
2022-10-05T05:02:28.326Z,4.8
2022-10-05T05:03:43.230Z,4.9
2022-10-05T05:04:54.894Z,5.5
2022-10-05T05:06:22.611Z,4.9
2022-10-05T05:07:22.875Z,5.1
2022-10-05T05:08:32.418Z,6
2022-10-05T05:09:46.894Z,4.8
2022-10-05T05:10:56.439Z,5.7
2022-10-05T05:12:10.214Z,4.9
2022-10-05T05:13:24.699Z,5.1
2022-10-05T05:14:36.943Z,5
2022-10-05T05:15:51.335Z,5.1
2022-10-05T05:18:49.926Z,5.5
2022-10-05T05:20:04.282Z,5.3
2022-10-05T05:21:16.742Z,5.5
2022-10-05T05:22:28.788Z,4.8
2022-10-05T05:23:36.039Z,5.1
2022-10-05T05:24:48.450Z,5
2022-10-05T05:26:00.478Z,5
2022-10-05T05:27:15.042Z,4.8
2022-10-05T05:28:24.714Z,4.9
2022-10-05T05:29:33.931Z,5
2022-10-05T05:30:42.635Z,5.2
2022-10-05T05:31:53.523Z,5
2022-10-05T05:33:06.628Z,5.2
2022-10-05T05:34:18.944Z,6.3
2022-10-05T05:35:33.395Z,6
2022-10-05T05:36:37.757Z,6.2
2022-10-05T05:37:52.291Z,6.6
2022-10-05T05:39:06.837Z,5.9
2022-10-05T05:40:21.633Z,6.5
2022-10-05T05:41:26.038Z,7
2022-10-05T05:42:38.487Z,7
2022-10-05T05:43:52.439Z,7.1
2022-10-05T05:45:01.999Z,7
2022-10-05T05:46:18.035Z,7
2022-10-05T05:47:27.396Z,6.5
2022-10-05T05:48:34.886Z,7.3
2022-10-05T05:49:41.978Z,7.4
2022-10-05T05:50:52.052Z,7.6
2022-10-05T05:52:08.515Z,7.3
2022-10-05T05:53:16.174Z,7.3
2022-10-05T05:54:25.414Z,6.6
2022-10-05T05:55:34.718Z,7.4
2022-10-05T05:56:38.958Z,7.1
2022-10-05T05:57:43.238Z,7.1
2022-10-05T05:58:56.105Z,7.3
2022-10-05T06:00:09.543Z,7.4
2022-10-05T06:01:32.518Z,7.5
2022-10-05T06:03:29.299Z,7.5
2022-10-05T06:04:39.191Z,6.8
2022-10-05T06:05:54.150Z,7.5
2022-10-05T06:06:59.003Z,7.7
2022-10-05T06:09:06.583Z,7.4
2022-10-05T06:10:20.875Z,7.2
2022-10-05T06:11:25.202Z,8.1
2022-10-05T06:12:34.036Z,7.5
2022-10-05T06:13:38.480Z,7.5
2022-10-05T06:14:42.968Z,7.5
2022-10-05T06:15:49.775Z,6.9
2022-10-05T06:17:00.031Z,7.4
2022-10-05T06:18:12.295Z,7
2022-10-05T06:19:16.927Z,7
2022-10-05T06:20:21.063Z,6.2
2022-10-05T06:21:31.102Z,7.5
2022-10-05T06:22:43.167Z,7.3
2022-10-05T06:23:50.215Z,6.6
2022-10-05T06:25:02.194Z,7
2022-10-05T06:26:16.970Z,6.6
2022-10-05T06:27:31.458Z,6.8
2022-10-05T06:28:35.580Z,6.9
2022-10-05T06:29:39.688Z,6.4
2022-10-05T06:30:54.046Z,6.5
2022-10-05T06:32:01.209Z,6.7
2022-10-05T06:33:05.362Z,6.9
2022-10-05T06:34:12.195Z,7.3
2022-10-05T06:35:26.566Z,7.4
2022-10-05T06:36:38.550Z,6.4
2022-10-05T06:37:47.802Z,6.2
2022-10-05T06:39:00.018Z,5.9
2022-10-05T06:40:14.482Z,6.7
2022-10-05T06:41:31.551Z,7.1
2022-10-05T06:42:44.590Z,6.1
2022-10-05T06:43:58.470Z,5.9
2022-10-05T06:45:05.671Z,5.6
2022-10-05T06:46:18.140Z,6
2022-10-05T06:47:25.266Z,5.6
2022-10-05T06:48:32.507Z,5.8
2022-10-05T06:49:46.954Z,5.6
2022-10-05T06:50:51.336Z,5.7
2022-10-05T06:52:05.670Z,6.5
2022-10-05T06:53:12.934Z,6.1
2022-10-05T06:54:25.126Z,5.7
2022-10-05T06:55:39.558Z,5.4
2022-10-05T06:56:53.906Z,5.8
2022-10-05T06:58:10.070Z,5.5
2022-10-05T06:59:22.203Z,5.3
2022-10-05T07:00:31.418Z,5.9
2022-10-05T07:01:37.986Z,5.9
2022-10-05T07:02:48.538Z,6
2022-10-05T07:03:57.793Z,5.7
2022-10-05T07:05:12.088Z,6.1
2022-10-05T07:06:26.406Z,5.6
2022-10-05T07:07:38.942Z,5.3
2022-10-05T07:08:43.058Z,5
2022-10-05T07:09:47.354Z,5.2
2022-10-05T07:11:02.743Z,5.4
2022-10-05T07:12:11.675Z,4.5
2022-10-05T07:13:26.830Z,5
2022-10-05T07:14:38.973Z,4.6
2022-10-05T07:15:53.485Z,4
2022-10-05T07:17:04.990Z,4.5
2022-10-05T07:18:21.706Z,5
2022-10-05T07:19:28.717Z,4.6
2022-10-05T07:20:40.498Z,4.8
2022-10-05T07:21:50.217Z,4.6
2022-10-05T07:22:54.282Z,4.1
2022-10-05T07:24:01.550Z,4.6
2022-10-05T07:25:14.614Z,4.2
2022-10-05T07:26:21.844Z,4.1
2022-10-05T07:27:31.410Z,4
2022-10-05T07:28:35.670Z,4
2022-10-05T07:29:45.089Z,4.3
2022-10-05T07:31:00.121Z,4.5
2022-10-05T07:32:09.162Z,3.8
2022-10-05T07:33:23.507Z,3.9
2022-10-05T07:34:34.784Z,3.6
2022-10-05T07:35:48.343Z,3.8
2022-10-05T07:37:03.430Z,3.7
2022-10-05T07:38:18.403Z,4.1
2022-10-05T07:39:55.689Z,3.7
2022-10-05T07:40:46.108Z,3.3
2022-10-05T07:41:55.483Z,3.7
2022-10-05T07:43:05.683Z,3.5
2022-10-05T07:44:13.638Z,4.1
2022-10-05T07:45:22.563Z,3.7
2022-10-05T07:46:41.590Z,4.1
2022-10-05T07:47:56.378Z,3.5
2022-10-05T07:50:10.052Z,3.6
2022-10-05T07:51:17.092Z,3.6
2022-10-05T07:52:33.767Z,4.1
2022-10-05T07:54:42.810Z,3.6
2022-10-05T07:55:57.122Z,3.8
2022-10-05T07:57:01.382Z,3.2
2022-10-05T07:58:18.553Z,3.6
2022-10-05T07:59:28.788Z,3.6
2022-10-05T08:00:41.180Z,3.6
2022-10-05T08:01:50.551Z,3.5
2022-10-05T08:02:54.737Z,3.5
2022-10-05T08:04:01.911Z,3.1
2022-10-05T08:05:16.386Z,3.6
2022-10-05T08:06:26.367Z,3.1
2022-10-05T08:07:38.679Z,3.8
2022-10-05T08:08:42.806Z,3.5
2022-10-05T08:09:54.885Z,3.1
2022-10-05T08:11:11.843Z,3.3
2022-10-05T08:12:26.175Z,3.5
2022-10-05T08:13:45.454Z,3.5
2022-10-05T08:14:54.771Z,3.3
2022-10-05T08:16:08.675Z,3.7
2022-10-05T08:17:19.844Z,3.4
2022-10-05T08:18:22.482Z,3.5
2022-10-05T08:19:34.939Z,3.3
2022-10-05T08:20:39.726Z,3.3
2022-10-05T08:21:50.440Z,3.2
2022-10-05T08:23:00.087Z,3.2
2022-10-05T08:24:06.991Z,3.4
2022-10-05T08:25:20.842Z,3.3
2022-10-05T08:26:25.126Z,3
2022-10-05T08:28:56.878Z,3.5
2022-10-05T08:30:01.122Z,3.3
2022-10-05T08:31:05.694Z,3.3
2022-10-05T08:32:12.537Z,3.6
2022-10-05T08:33:23.046Z,3.4
2022-10-05T08:34:27.282Z,3.6
2022-10-05T08:35:41.574Z,3.6
2022-10-05T08:36:49.201Z,2.8
2022-10-05T08:37:56.318Z,3.6
2022-10-05T08:39:03.514Z,3.7
2022-10-05T08:40:07.770Z,3.3
2022-10-05T08:41:17.097Z,3.5
2022-10-05T08:42:34.256Z,3.6
2022-10-05T08:43:48.863Z,3.2
2022-10-05T08:45:03.198Z,3.2
2022-10-05T08:47:19.118Z,3.4
2022-10-05T08:48:28.778Z,3.5
2022-10-05T08:49:43.286Z,3.5
2022-10-05T08:50:59.719Z,4.1
2022-10-05T08:52:14.219Z,3.5
2022-10-05T08:53:24.547Z,3.6
2022-10-05T08:54:38.965Z,4
2022-10-05T08:55:53.445Z,3.7
2022-10-05T08:57:07.936Z,3.2
2022-10-05T08:58:22.500Z,3.9
2022-10-05T08:59:36.946Z,3.5
2022-10-05T09:00:51.642Z,3.8
2022-10-05T09:02:01.217Z,3.9
2022-10-05T09:03:13.047Z,3.4
2022-10-05T09:04:20.382Z,3.6
2022-10-05T09:05:32.342Z,3.4
2022-10-05T09:06:41.682Z,3.4
2022-10-05T09:07:45.973Z,3.8
2022-10-05T09:08:59.438Z,3.3
2022-10-05T09:10:14.126Z,3.4
2022-10-05T09:11:28.526Z,3.5
2022-10-05T09:12:42.852Z,3.3
2022-10-05T09:13:52.042Z,3.2
2022-10-05T09:15:24.636Z,3.3
2022-10-05T09:16:13.742Z,3
2022-10-05T09:17:29.446Z,2.9
2022-10-05T09:18:39.278Z,2.9
2022-10-05T09:19:48.489Z,3.6
2022-10-05T09:20:52.745Z,3.1
2022-10-05T09:21:59.583Z,3
2022-10-05T09:23:15.318Z,3.5
2022-10-05T09:24:24.513Z,3.7
2022-10-05T09:25:29.017Z,4
2022-10-05T09:26:38.387Z,3.7
2022-10-05T09:27:57.107Z,3.8
2022-10-05T09:29:09.349Z,3.9
2022-10-05T09:30:18.725Z,4.2
2022-10-05T09:31:30.505Z,3.7
2022-10-05T09:32:44.781Z,3.9
2022-10-05T09:33:54.174Z,3.8
2022-10-05T09:35:03.770Z,3.8
2022-10-05T09:36:18.173Z,4
2022-10-05T09:37:27.670Z,3.3
2022-10-05T09:38:36.986Z,3.5
2022-10-05T09:39:49.322Z,3.8
2022-10-05T09:41:04.002Z,3.5
2022-10-05T09:42:13.285Z,4.1
2022-10-05T09:43:24.873Z,3.9
2022-10-05T09:44:39.537Z,3.9
2022-10-05T09:45:53.957Z,4
2022-10-05T09:47:08.246Z,4.1
2022-10-05T09:48:17.543Z,4.6
2022-10-05T09:49:32.229Z,4.4
2022-10-05T09:50:46.473Z,4.2
2022-10-05T09:51:58.726Z,4.4
2022-10-05T09:53:05.665Z,4.3
2022-10-05T09:54:14.893Z,4.3
2022-10-05T09:55:29.473Z,4.1
2022-10-05T09:56:36.485Z,4.1
2022-10-05T09:57:49.414Z,4.3
2022-10-05T09:59:02.906Z,3.8
2022-10-05T10:00:14.966Z,4.1
2022-10-05T10:01:33.436Z,4.1
2022-10-05T10:02:36.631Z,3.7
2022-10-05T10:03:54.813Z,3.7
2022-10-05T10:05:06.902Z,4
2022-10-05T10:06:19.182Z,3.9
2022-10-05T10:07:33.493Z,3.5
2022-10-05T10:08:45.913Z,4.1
2022-10-05T10:09:58.746Z,4.4
2022-10-05T10:11:13.099Z,4
2022-10-05T10:12:25.089Z,3.9
2022-10-05T10:13:35.609Z,3.7
2022-10-05T10:14:49.922Z,3.8
2022-10-05T10:16:04.377Z,3.7
2022-10-05T10:17:18.697Z,3.8
2022-10-05T10:18:30.719Z,3.9
2022-10-05T10:19:45.164Z,4
2022-10-05T10:20:58.941Z,3.6
2022-10-05T10:22:08.296Z,4.2
2022-10-05T10:23:20.569Z,4.1
2022-10-05T10:24:32.945Z,3.7
2022-10-05T10:25:47.593Z,3.9
2022-10-05T10:26:56.913Z,3.8
2022-10-05T10:28:11.338Z,3.6
2022-10-05T10:29:20.763Z,3.7
2022-10-05T10:30:26.270Z,3.4
2022-10-05T10:31:39.605Z,3.9
2022-10-05T10:32:54.213Z,3.4
2022-10-05T10:34:08.645Z,3.7
2022-10-05T10:35:20.778Z,3.5
2022-10-05T10:36:33.038Z,3.7
2022-10-05T10:37:44.875Z,3.7
2022-10-05T10:39:02.338Z,3.5
2022-10-05T10:40:19.109Z,3.3
2022-10-05T10:41:33.609Z,3.8
2022-10-05T10:42:47.938Z,3.7
2022-10-05T10:44:00.989Z,3.7
2022-10-05T10:45:13.261Z,3.5
2022-10-05T10:46:21.007Z,3.5
2022-10-05T10:47:35.480Z,3.5
2022-10-05T10:48:49.901Z,3.4
2022-10-05T10:49:59.954Z,3.2
2022-10-05T10:51:12.101Z,3.1
2022-10-05T10:52:24.869Z,3.4
2022-10-05T10:53:34.281Z,3.1
2022-10-05T10:54:43.805Z,3.4
2022-10-05T10:55:58.270Z,3.1
2022-10-05T10:57:13.433Z,3.5
2022-10-05T10:59:33.997Z,3
2022-10-05T11:00:43.410Z,3.5
2022-10-05T11:01:51.269Z,3.6
2022-10-05T11:03:03.033Z,3.6
2022-10-05T11:04:12.502Z,2.9
2022-10-05T11:05:26.951Z,3.3
2022-10-05T11:06:41.279Z,3.9
2022-10-05T11:07:55.705Z,3.1
2022-10-05T11:09:04.950Z,2.9
2022-10-05T11:10:09.133Z,3.1
2022-10-05T11:11:24.310Z,2.8
2022-10-05T11:12:39.049Z,2.9
2022-10-05T11:13:48.314Z,2.6
2022-10-05T11:15:03.073Z,2.4
2022-10-05T11:16:13.483Z,3
2022-10-05T11:17:19.625Z,2.6
2022-10-05T11:18:35.313Z,2.7
2022-10-05T11:20:03.444Z,2.4
2022-10-05T11:21:00.117Z,2.6
2022-10-05T11:22:15.833Z,2.7
2022-10-05T11:24:39.637Z,2.7
2022-10-05T11:25:55.587Z,2.8
2022-10-05T11:27:10.337Z,2.5
2022-10-05T11:28:22.753Z,2.7
2022-10-05T11:29:35.993Z,2.6
2022-10-05T11:30:47.429Z,2.9
2022-10-05T11:32:00.434Z,2.7
2022-10-05T11:33:15.614Z,3.7
2022-10-05T11:34:24.892Z,2.9
2022-10-05T11:35:39.309Z,3.5
2022-10-05T11:36:52.213Z,3.1
2022-10-05T11:38:05.125Z,3.2
2022-10-05T11:39:19.517Z,2.9
2022-10-05T11:40:31.579Z,2.6
2022-10-05T11:41:43.609Z,2.8
2022-10-05T11:42:58.178Z,2.6
2022-10-05T11:44:08.069Z,2.7
2022-10-05T11:45:16.165Z,2.7
2022-10-05T11:46:26.214Z,2.7
2022-10-05T11:47:36.098Z,2.7
2022-10-05T11:48:45.461Z,2.7
2022-10-05T11:49:59.858Z,2.6
2022-10-05T11:51:12.105Z,2.5
2022-10-05T11:52:24.606Z,2.5
2022-10-05T11:53:39.107Z,2.8
2022-10-05T11:55:06.257Z,2.4
2022-10-05T11:55:55.315Z,2.4
2022-10-05T11:57:09.613Z,2.4
2022-10-05T11:58:21.865Z,2.7
2022-10-05T11:59:29.205Z,2.4
2022-10-05T12:00:33.421Z,2.4
2022-10-05T12:01:40.678Z,2.6
2022-10-05T12:03:56.547Z,2.7
2022-10-05T12:05:10.786Z,2.3
2022-10-05T12:06:20.091Z,2.7
2022-10-05T12:07:29.420Z,2.6
2022-10-05T12:08:38.737Z,2.5
2022-10-05T12:09:53.909Z,2.6
2022-10-05T12:11:13.444Z,2.5
2022-10-05T12:12:28.456Z,2.6
2022-10-05T12:13:40.925Z,2.4
2022-10-05T12:14:50.698Z,2.6
2022-10-05T12:16:00.975Z,2.6
2022-10-05T12:17:12.994Z,2.4
2022-10-05T12:18:22.782Z,2.7
2022-10-05T12:20:35.437Z,2.7
2022-10-05T12:21:39.896Z,2.8
2022-10-05T12:22:49.798Z,2.8
2022-10-05T12:23:54.098Z,2.8
2022-10-05T12:25:05.990Z,2.6
2022-10-05T12:26:15.231Z,3
2022-10-05T12:27:24.697Z,2.5
2022-10-05T12:28:29.432Z,2.6
2022-10-05T12:29:35.545Z,2.4
2022-10-05T12:31:51.338Z,2.8
2022-10-05T12:33:05.756Z,2.5
2022-10-05T12:34:13.606Z,2.2
2022-10-05T12:35:43.709Z,2.3
2022-10-05T12:36:59.536Z,2.3
2022-10-05T12:37:48.218Z,2.3
2022-10-05T12:38:57.509Z,2.5
2022-10-05T12:40:09.521Z,2.9
2022-10-05T12:41:19.326Z,2.8
2022-10-05T12:42:28.533Z,3
2022-10-05T12:43:35.722Z,2.9
2022-10-05T12:44:51.245Z,2.9
2022-10-05T12:46:00.810Z,2.6
2022-10-05T12:47:15.360Z,2.6
2022-10-05T12:48:22.488Z,2.9
2022-10-05T12:49:36.909Z,2.4
2022-10-05T12:50:47.513Z,2.6
2022-10-05T12:51:56.725Z,2.5
2022-10-05T12:53:06.117Z,2.7
2022-10-05T12:54:15.433Z,2.3
2022-10-05T12:55:24.921Z,2.6
2022-10-05T12:56:34.492Z,2.7
2022-10-05T12:57:43.717Z,2.5
2022-10-05T12:58:54.409Z,2.6
2022-10-05T13:00:03.689Z,2.5
2022-10-05T13:01:14.125Z,2.2
2022-10-05T13:02:28.497Z,2.8
2022-10-05T13:03:38.040Z,2.4
2022-10-05T13:04:51.179Z,2.6
2022-10-05T13:06:03.265Z,2.6
2022-10-05T13:07:10.229Z,2.6
2022-10-05T13:08:22.917Z,2.6
2022-10-05T13:09:35.709Z,2.3
2022-10-05T13:10:48.273Z,2.5
2022-10-05T13:11:57.642Z,2.7
2022-10-05T13:13:04.472Z,2.4
2022-10-05T13:14:18.947Z,2.6
2022-10-05T13:15:33.426Z,2.8
2022-10-05T13:16:38.219Z,2.5
2022-10-05T13:17:50.467Z,3
2022-10-05T13:18:59.971Z,2.5
2022-10-05T13:20:09.781Z,2.4
2022-10-05T13:22:29.016Z,2.5
2022-10-05T13:23:41.340Z,2.4
2022-10-05T13:24:55.944Z,2.7
2022-10-05T13:26:03.076Z,2.4
2022-10-05T13:27:07.516Z,2.4
2022-10-05T13:28:17.660Z,2.6
2022-10-05T13:29:24.924Z,2.5
2022-10-05T13:30:29.815Z,2.5
2022-10-05T13:31:34.010Z,2.6
2022-10-05T13:32:41.116Z,2.7
2022-10-05T13:33:45.323Z,3.5
2022-10-05T13:34:59.968Z,2.9
2022-10-05T13:36:14.985Z,2.9
2022-10-05T13:37:27.781Z,3.2
2022-10-05T13:38:42.016Z,3.4
2022-10-05T13:39:51.772Z,2.9
2022-10-05T13:40:58.735Z,3.6
2022-10-05T13:42:03.315Z,3.4
2022-10-05T13:43:15.596Z,3.4
2022-10-05T13:44:22.524Z,3.1
2022-10-05T13:45:32.324Z,3
2022-10-05T13:46:46.964Z,3
2022-10-05T13:48:01.324Z,2.9
2022-10-05T13:49:16.024Z,2.7
2022-10-05T13:50:27.443Z,3.1
2022-10-05T13:51:29.825Z,3.5
2022-10-05T13:52:36.588Z,3.3
2022-10-05T13:53:46.732Z,3.2
2022-10-05T13:55:02.069Z,3.8
2022-10-05T13:56:09.452Z,3.7
2022-10-05T13:57:21.587Z,3.5
2022-10-05T13:58:25.904Z,2.8
2022-10-05T13:59:36.053Z,3.2
2022-10-05T14:00:45.559Z,2.9
2022-10-05T14:01:55.207Z,3.4
2022-10-05T14:03:02.350Z,3.3
2022-10-05T14:04:06.624Z,3.5
2022-10-05T14:05:16.723Z,3.1
2022-10-05T14:06:21.035Z,4.2
2022-10-05T14:07:25.288Z,4.1
2022-10-05T14:08:32.619Z,4.7
2022-10-05T14:09:36.801Z,4.5
2022-10-05T14:10:41.166Z,4
2022-10-05T14:11:45.439Z,3.5
2022-10-05T14:12:49.907Z,3.7
2022-10-05T14:13:54.285Z,3.3
2022-10-05T14:15:03.581Z,2.8
2022-10-05T14:16:13.991Z,4.3
2022-10-05T14:17:26.085Z,3.7
2022-10-05T14:18:31.628Z,4.5
2022-10-05T14:19:36.103Z,6.1
2022-10-05T14:20:46.036Z,6.2
2022-10-05T14:22:02.291Z,5.3
2022-10-05T14:23:11.751Z,7.5
2022-10-05T14:24:25.812Z,16.4
2022-10-05T14:25:21.355Z,8.7
2022-10-05T14:26:25.584Z,11
2022-10-05T14:27:33.043Z,10
2022-10-05T14:28:45.159Z,8.1
2022-10-05T14:29:54.799Z,11.8
2022-10-05T14:30:59.402Z,6.6
2022-10-05T14:32:06.263Z,7
2022-10-05T14:33:15.584Z,5.5
2022-10-05T14:34:20.139Z,5.3
2022-10-05T14:35:32.651Z,4.6
2022-10-05T14:36:47.371Z,6.5
2022-10-05T14:37:51.964Z,4.6
2022-10-05T14:39:01.607Z,5.7
2022-10-05T14:40:05.936Z,5.7
2022-10-05T14:41:20.521Z,4.1
2022-10-05T14:42:28.041Z,3.3
2022-10-05T14:43:32.459Z,3.9
2022-10-05T14:44:37.597Z,3.3
2022-10-05T14:45:42.693Z,3.6
2022-10-05T14:46:51.848Z,3.5
2022-10-05T14:47:56.336Z,3.5
2022-10-05T14:49:00.724Z,4
2022-10-05T14:50:13.027Z,4.2
2022-10-05T14:51:23.068Z,4.9
2022-10-05T14:52:27.420Z,4
2022-10-05T14:53:34.840Z,4.4
2022-10-05T14:54:39.115Z,4.5
2022-10-05T14:55:51.335Z,3.7
2022-10-05T14:57:00.628Z,3.8
2022-10-05T14:58:05.056Z,4
2022-10-05T14:59:14.415Z,4.6
2022-10-05T15:00:26.428Z,4.9
2022-10-05T15:01:30.789Z,3.3
2022-10-05T15:02:34.932Z,3.6
2022-10-05T15:03:46.884Z,3.4
2022-10-05T15:05:01.452Z,3.4
2022-10-05T15:06:05.672Z,4.2
2022-10-05T15:07:10.007Z,3.8
2022-10-05T15:08:22.335Z,4.9
2022-10-05T15:09:34.431Z,4.6
2022-10-05T15:10:49.044Z,4.7
2022-10-05T15:11:53.359Z,5.3
2022-10-05T15:12:58.065Z,4.4
2022-10-05T15:14:05.801Z,4.7
2022-10-05T15:15:13.624Z,5.1
2022-10-05T15:16:23.163Z,5.1
2022-10-05T15:17:27.370Z,5.7
2022-10-05T15:18:34.878Z,5.2
2022-10-05T15:19:44.163Z,5.2
2022-10-05T15:20:53.525Z,4.2
2022-10-05T15:22:03.488Z,4.2
2022-10-05T15:23:16.657Z,4.6
2022-10-05T15:24:31.530Z,4.5
2022-10-05T15:25:39.305Z,4.5
2022-10-05T15:26:46.040Z,4.6
2022-10-05T15:27:56.054Z,6.4
2022-10-05T15:29:10.653Z,5
2022-10-05T15:30:18.447Z,5.7
2022-10-05T15:31:22.850Z,4.2
2022-10-05T15:32:37.146Z,6.4
2022-10-05T15:33:41.573Z,8.7
2022-10-05T15:34:45.904Z,5.1
2022-10-05T15:35:58.768Z,6.1
2022-10-05T15:37:13.236Z,4.7
2022-10-05T15:38:17.589Z,4.3
2022-10-05T15:39:25.234Z,4.5
2022-10-05T15:40:37.172Z,6.1
2022-10-05T15:41:46.500Z,5.7
2022-10-05T15:42:53.472Z,4.7
2022-10-05T15:43:58.796Z,5.7
2022-10-05T15:45:09.010Z,5.2
2022-10-05T15:46:16.056Z,5.7
2022-10-05T15:47:22.965Z,5.7
2022-10-05T15:48:33.412Z,5.1
2022-10-05T15:49:47.816Z,5.3
2022-10-05T15:50:54.992Z,5.4
2022-10-05T15:52:04.574Z,6.5
2022-10-05T15:53:16.837Z,5.6
2022-10-05T15:54:21.749Z,7
2022-10-05T15:55:39.256Z,6.5
2022-10-05T15:56:48.568Z,6.1
2022-10-05T15:57:57.961Z,5.1
2022-10-05T15:59:14.219Z,5.2
2022-10-05T16:00:20.737Z,11.8
2022-10-05T16:01:25.314Z,8.7
2022-10-05T16:02:33.459Z,6
2022-10-05T16:03:37.794Z,5.7
2022-10-05T16:04:47.336Z,8.9
2022-10-05T16:05:56.665Z,7.6
2022-10-05T16:07:08.688Z,7.1
2022-10-05T16:08:18.260Z,8.2
2022-10-05T16:09:37.940Z,7
2022-10-05T16:10:50.981Z,8.6
2022-10-05T16:11:56.056Z,9.7
2022-10-05T16:13:08.484Z,8.8
2022-10-05T16:14:12.734Z,7.5
2022-10-05T16:15:19.668Z,7.5
2022-10-05T16:16:29.116Z,10.6
2022-10-05T16:17:33.612Z,8.8
2022-10-05T16:18:43.245Z,7.9
2022-10-05T16:19:48.269Z,6.9
2022-10-05T16:20:57.592Z,7.3
2022-10-05T16:22:11.997Z,7.6
2022-10-05T16:23:22.298Z,10.2
2022-10-05T16:24:34.434Z,11.3
2022-10-05T16:25:41.220Z,9.9
2022-10-05T16:26:50.680Z,10.7
2022-10-05T16:28:00.514Z,12.5
2022-10-05T16:29:06.861Z,6